Nigde, Turkey

11:50 PM EET on February 07, 2016 (GMT +0200)
Kapadokya | | Change Station
CLOSE
Current Station
Airport
Location: Nevsehir,
Elevation: 3100 ft
Nearby Weather Stations

Elev 3100 ft 38.77 °N, 34.53 °E | Updated 30 minutes ago

Mostly Cloudy
Mostly Cloudy
28 °F
Feels Like 22 °F
N
6
Wind Variable Wind from SSE

Today
High -- | Low -- °F
--% Chance of Precip.
Yesterday
High -- | Low -- °F
Precip. -- in
Pressure 30.24 in
Visibility 6.2 miles
Clouds Scattered Clouds 3500 ft
Mostly Cloudy 9000 ft
Windchill 22 °F
Dew Point 18 °F
Humidity 64%
Rainfall 0.00 in
Snow Depth Not available.
6:40 AM 5:10 PM
Waning Crescent, 1% visible
METAR LTAZ 072120Z 16005KT 110V210 9999 SCT035 BKN090 M02/M08 Q1024
Pressure 30.24 in
Visibility 6.2 miles
Clouds Scattered Clouds 3500 ft
Mostly Cloudy 9000 ft
Windchill 22 °F
Dew Point 18 °F
Humidity 64%
Rainfall 0.00 in
Snow Depth Not available.
6:40 AM 5:10 PM
Waning Crescent, 1% visible
METAR LTAZ 072120Z 16005KT 110V210 9999 SCT035 BKN090 M02/M08 Q1024

10-Day Weather Forecast

Almanac

Astronomy

Feb. 07, 2016 Rise Set
Actual Time
Civil Twilight
Nautical Twilight
Astronomical Twilight
Moon
Length of Visible Light
Length of Day
Tomorrow will be .
, % of the Moon is Illuminated

Today's Extremes

Country Highs Country Lows

Community

WunderPhotos

Upload Photos

1,891,304 photos uploaded!

WunderBlog® & News

Nearby

Air Quality

  Air Quality AQ Index Pollutant
Not available.

Snow Depth

Station Depth Elevation

Earthquake Activity

City Distance Mag. Time & Date
Minimum magnitude displayed is 2.5.

Coastal Water Temperatures

Place Temperature

Stations

Nearby Weather Stations

Station Location Temp. Windchill Dew Point Humidity Wind Precip. Elev Updated Type